sensor_id;sensor_type;location;lat;lon;timestamp;P1;durP1;ratioP1;P2;durP2;ratioP2
545;SDS011;259;53.304;9.816;2023-07-09T00:02:25;3.87;;;3.67;;
545;SDS011;259;53.304;9.816;2023-07-09T00:04:52;3.57;;;3.37;;
545;SDS011;259;53.304;9.816;2023-07-09T00:07:26;3.30;;;3.10;;
545;SDS011;259;53.304;9.816;2023-07-09T00:09:55;3.03;;;2.83;;
545;SDS011;259;53.304;9.816;2023-07-09T00:12:22;3.17;;;2.97;;
545;SDS011;259;53.304;9.816;2023-07-09T00:14:48;3.33;;;3.13;;
545;SDS011;259;53.304;9.816;2023-07-09T00:17:30;3.17;;;2.97;;
545;SDS011;259;53.304;9.816;2023-07-09T00:19:58;3.13;;;2.93;;
545;SDS011;259;53.304;9.816;2023-07-09T00:22:25;3.70;;;3.50;;
545;SDS011;259;53.304;9.816;2023-07-09T00:24:52;3.23;;;3.03;;
545;SDS011;259;53.304;9.816;2023-07-09T00:27:22;3.33;;;3.13;;
545;SDS011;259;53.304;9.816;2023-07-09T00:29:51;3.57;;;3.37;;
545;SDS011;259;53.304;9.816;2023-07-09T00:32:20;3.00;;;2.80;;
545;SDS011;259;53.304;9.816;2023-07-09T00:34:49;3.40;;;3.10;;
545;SDS011;259;53.304;9.816;2023-07-09T00:37:17;3.40;;;3.20;;
545;SDS011;259;53.304;9.816;2023-07-09T00:39:46;3.07;;;2.90;;
545;SDS011;259;53.304;9.816;2023-07-09T00:42:14;3.00;;;2.90;;
545;SDS011;259;53.304;9.816;2023-07-09T00:44:46;3.00;;;2.80;;
545;SDS011;259;53.304;9.816;2023-07-09T00:47:23;3.63;;;3.43;;
545;SDS011;259;53.304;9.816;2023-07-09T00:50:09;3.03;;;2.93;;
545;SDS011;259;53.304;9.816;2023-07-09T00:52:50;3.20;;;3.00;;
545;SDS011;259;53.304;9.816;2023-07-09T00:55:21;3.13;;;3.03;;
545;SDS011;259;53.304;9.816;2023-07-09T00:57:51;3.37;;;3.17;;
545;SDS011;259;53.304;9.816;2023-07-09T01:00:21;3.77;;;3.47;;
545;SDS011;259;53.304;9.816;2023-07-09T01:03:07;3.30;;;3.10;;
545;SDS011;259;53.304;9.816;2023-07-09T01:05:35;3.20;;;3.00;;
545;SDS011;259;53.304;9.816;2023-07-09T01:08:05;3.90;;;3.30;;
545;SDS011;259;53.304;9.816;2023-07-09T01:10:31;3.67;;;3.47;;
545;SDS011;259;53.304;9.816;2023-07-09T01:12:56;3.37;;;3.17;;
545;SDS011;259;53.304;9.816;2023-07-09T01:15:22;3.33;;;3.13;;
545;SDS011;259;53.304;9.816;2023-07-09T01:17:48;3.17;;;3.00;;
545;SDS011;259;53.304;9.816;2023-07-09T01:20:18;3.40;;;3.20;;
545;SDS011;259;53.304;9.816;2023-07-09T01:22:47;3.83;;;3.57;;
545;SDS011;259;53.304;9.816;2023-07-09T01:25:15;4.33;;;4.10;;
545;SDS011;259;53.304;9.816;2023-07-09T01:27:42;4.00;;;3.60;;
545;SDS011;259;53.304;9.816;2023-07-09T01:30:13;3.60;;;3.40;;
545;SDS011;259;53.304;9.816;2023-07-09T01:32:47;3.47;;;3.27;;
545;SDS011;259;53.304;9.816;2023-07-09T01:35:15;4.40;;;3.70;;
545;SDS011;259;53.304;9.816;2023-07-09T01:37:44;3.77;;;3.57;;
545;SDS011;259;53.304;9.816;2023-07-09T01:40:12;3.63;;;3.43;;
545;SDS011;259;53.304;9.816;2023-07-09T01:42:40;3.33;;;3.13;;
545;SDS011;259;53.304;9.816;2023-07-09T01:45:07;4.27;;;3.80;;
545;SDS011;259;53.304;9.816;2023-07-09T01:47:35;3.70;;;3.40;;
545;SDS011;259;53.304;9.816;2023-07-09T01:50:02;3.83;;;3.63;;
545;SDS011;259;53.304;9.816;2023-07-09T01:52:30;3.93;;;3.60;;
545;SDS011;259;53.304;9.816;2023-07-09T01:54:58;3.50;;;3.20;;
545;SDS011;259;53.304;9.816;2023-07-09T01:57:25;3.00;;;2.83;;
545;SDS011;259;53.304;9.816;2023-07-09T02:00:00;4.03;;;3.80;;
545;SDS011;259;53.304;9.816;2023-07-09T02:02:35;4.07;;;3.77;;
545;SDS011;259;53.304;9.816;2023-07-09T02:05:03;3.93;;;3.63;;
545;SDS011;259;53.304;9.816;2023-07-09T02:07:30;4.30;;;3.90;;
545;SDS011;259;53.304;9.816;2023-07-09T02:09:57;4.07;;;3.77;;
545;SDS011;259;53.304;9.816;2023-07-09T02:12:23;3.60;;;3.40;;
545;SDS011;259;53.304;9.816;2023-07-09T02:14:49;4.10;;;3.90;;
545;SDS011;259;53.304;9.816;2023-07-09T02:17:15;4.13;;;3.80;;
545;SDS011;259;53.304;9.816;2023-07-09T02:19:41;3.50;;;3.30;;
545;SDS011;259;53.304;9.816;2023-07-09T02:22:07;3.17;;;2.97;;
545;SDS011;259;53.304;9.816;2023-07-09T02:24:34;3.93;;;3.73;;
545;SDS011;259;53.304;9.816;2023-07-09T02:27:00;3.27;;;3.17;;
545;SDS011;259;53.304;9.816;2023-07-09T02:29:29;3.90;;;3.60;;
545;SDS011;259;53.304;9.816;2023-07-09T02:31:56;3.47;;;3.27;;
545;SDS011;259;53.304;9.816;2023-07-09T02:34:26;3.70;;;3.50;;
545;SDS011;259;53.304;9.816;2023-07-09T02:36:54;3.60;;;3.40;;
545;SDS011;259;53.304;9.816;2023-07-09T02:39:21;3.27;;;3.07;;
545;SDS011;259;53.304;9.816;2023-07-09T02:41:48;4.50;;;4.20;;
545;SDS011;259;53.304;9.816;2023-07-09T02:44:15;3.77;;;3.57;;
545;SDS011;259;53.304;9.816;2023-07-09T02:46:42;3.67;;;3.47;;
545;SDS011;259;53.304;9.816;2023-07-09T02:49:09;4.07;;;3.87;;
545;SDS011;259;53.304;9.816;2023-07-09T02:51:36;3.90;;;3.70;;
545;SDS011;259;53.304;9.816;2023-07-09T02:54:03;3.83;;;3.63;;
545;SDS011;259;53.304;9.816;2023-07-09T02:56:30;3.70;;;3.50;;
545;SDS011;259;53.304;9.816;2023-07-09T02:58:56;3.90;;;3.70;;
545;SDS011;259;53.304;9.816;2023-07-09T03:01:22;3.57;;;3.37;;
545;SDS011;259;53.304;9.816;2023-07-09T03:03:53;3.73;;;3.53;;
545;SDS011;259;53.304;9.816;2023-07-09T03:06:19;3.93;;;3.73;;
545;SDS011;259;53.304;9.816;2023-07-09T03:08:47;3.77;;;3.57;;
545;SDS011;259;53.304;9.816;2023-07-09T03:11:14;4.20;;;4.00;;
545;SDS011;259;53.304;9.816;2023-07-09T03:13:41;3.63;;;3.43;;
545;SDS011;259;53.304;9.816;2023-07-09T03:16:08;3.60;;;3.40;;
545;SDS011;259;53.304;9.816;2023-07-09T03:18:33;3.33;;;3.17;;
545;SDS011;259;53.304;9.816;2023-07-09T03:20:59;4.40;;;4.10;;
545;SDS011;259;53.304;9.816;2023-07-09T03:23:25;4.10;;;3.80;;
545;SDS011;259;53.304;9.816;2023-07-09T03:25:51;3.80;;;3.57;;
545;SDS011;259;53.304;9.816;2023-07-09T03:28:17;4.27;;;4.00;;
545;SDS011;259;53.304;9.816;2023-07-09T03:30:44;3.63;;;3.43;;
545;SDS011;259;53.304;9.816;2023-07-09T03:33:13;3.87;;;3.67;;
545;SDS011;259;53.304;9.816;2023-07-09T03:35:40;3.93;;;3.73;;
545;SDS011;259;53.304;9.816;2023-07-09T03:38:07;3.60;;;3.40;;
545;SDS011;259;53.304;9.816;2023-07-09T03:40:35;4.47;;;4.17;;
545;SDS011;259;53.304;9.816;2023-07-09T03:43:02;3.43;;;3.30;;
545;SDS011;259;53.304;9.816;2023-07-09T03:45:29;4.23;;;4.03;;
545;SDS011;259;53.304;9.816;2023-07-09T03:47:55;3.80;;;3.60;;
545;SDS011;259;53.304;9.816;2023-07-09T03:50:21;3.83;;;3.53;;
545;SDS011;259;53.304;9.816;2023-07-09T03:52:47;3.63;;;3.43;;
545;SDS011;259;53.304;9.816;2023-07-09T03:55:13;4.10;;;3.73;;
545;SDS011;259;53.304;9.816;2023-07-09T03:57:39;3.90;;;3.70;;
545;SDS011;259;53.304;9.816;2023-07-09T04:00:05;3.57;;;3.30;;
545;SDS011;259;53.304;9.816;2023-07-09T04:02:35;3.93;;;3.73;;
545;SDS011;259;53.304;9.816;2023-07-09T04:05:02;4.37;;;4.17;;
545;SDS011;259;53.304;9.816;2023-07-09T04:07:28;3.90;;;3.70;;
545;SDS011;259;53.304;9.816;2023-07-09T04:09:54;3.90;;;3.70;;
545;SDS011;259;53.304;9.816;2023-07-09T04:12:20;4.00;;;3.77;;
545;SDS011;259;53.304;9.816;2023-07-09T04:14:45;3.30;;;3.20;;
545;SDS011;259;53.304;9.816;2023-07-09T04:17:11;3.70;;;3.50;;
545;SDS011;259;53.304;9.816;2023-07-09T04:19:37;3.20;;;3.03;;
545;SDS011;259;53.304;9.816;2023-07-09T04:22:03;3.40;;;3.20;;
545;SDS011;259;53.304;9.816;2023-07-09T04:24:31;3.87;;;3.67;;
545;SDS011;259;53.304;9.816;2023-07-09T04:26:58;3.83;;;3.63;;
545;SDS011;259;53.304;9.816;2023-07-09T04:29:28;3.30;;;3.10;;
545;SDS011;259;53.304;9.816;2023-07-09T04:31:55;4.00;;;3.80;;
545;SDS011;259;53.304;9.816;2023-07-09T04:34:20;4.10;;;3.90;;
545;SDS011;259;53.304;9.816;2023-07-09T04:36:46;4.03;;;3.83;;
545;SDS011;259;53.304;9.816;2023-07-09T04:39:12;3.50;;;3.30;;
545;SDS011;259;53.304;9.816;2023-07-09T04:41:38;3.83;;;3.63;;
545;SDS011;259;53.304;9.816;2023-07-09T04:44:04;4.20;;;3.90;;
545;SDS011;259;53.304;9.816;2023-07-09T04:46:30;3.63;;;3.40;;
545;SDS011;259;53.304;9.816;2023-07-09T04:48:55;3.77;;;3.57;;
545;SDS011;259;53.304;9.816;2023-07-09T04:51:21;3.67;;;3.47;;
545;SDS011;259;53.304;9.816;2023-07-09T04:53:47;3.47;;;3.27;;
545;SDS011;259;53.304;9.816;2023-07-09T04:56:16;3.73;;;3.53;;
545;SDS011;259;53.304;9.816;2023-07-09T04:58:43;2.90;;;2.77;;
545;SDS011;259;53.304;9.816;2023-07-09T05:01:08;4.20;;;3.93;;
545;SDS011;259;53.304;9.816;2023-07-09T05:03:34;2.90;;;2.80;;
545;SDS011;259;53.304;9.816;2023-07-09T05:06:00;3.67;;;3.47;;
545;SDS011;259;53.304;9.816;2023-07-09T05:08:26;3.40;;;3.20;;
545;SDS011;259;53.304;9.816;2023-07-09T05:10:52;3.53;;;3.33;;
545;SDS011;259;53.304;9.816;2023-07-09T05:13:18;4.00;;;3.80;;
545;SDS011;259;53.304;9.816;2023-07-09T05:15:44;3.40;;;3.20;;
545;SDS011;259;53.304;9.816;2023-07-09T05:18:12;3.40;;;3.20;;
545;SDS011;259;53.304;9.816;2023-07-09T05:20:39;3.47;;;3.27;;
545;SDS011;259;53.304;9.816;2023-07-09T05:23:05;3.70;;;3.50;;
545;SDS011;259;53.304;9.816;2023-07-09T05:25:33;3.93;;;3.73;;
545;SDS011;259;53.304;9.816;2023-07-09T05:27:59;3.60;;;3.40;;
545;SDS011;259;53.304;9.816;2023-07-09T05:30:25;3.50;;;3.30;;
545;SDS011;259;53.304;9.816;2023-07-09T05:32:51;3.93;;;3.60;;
545;SDS011;259;53.304;9.816;2023-07-09T05:35:18;3.40;;;3.20;;
545;SDS011;259;53.304;9.816;2023-07-09T05:37:44;3.63;;;3.43;;
545;SDS011;259;53.304;9.816;2023-07-09T05:40:10;3.20;;;3.10;;
545;SDS011;259;53.304;9.816;2023-07-09T05:42:36;3.30;;;3.10;;
545;SDS011;259;53.304;9.816;2023-07-09T05:45:02;3.57;;;3.37;;
545;SDS011;259;53.304;9.816;2023-07-09T05:47:28;3.73;;;3.53;;
545;SDS011;259;53.304;9.816;2023-07-09T05:49:54;3.00;;;2.90;;
545;SDS011;259;53.304;9.816;2023-07-09T05:52:21;4.07;;;3.80;;
545;SDS011;259;53.304;9.816;2023-07-09T05:54:49;3.93;;;3.73;;
545;SDS011;259;53.304;9.816;2023-07-09T05:57:16;3.80;;;3.60;;
545;SDS011;259;53.304;9.816;2023-07-09T05:59:42;3.97;;;3.57;;
545;SDS011;259;53.304;9.816;2023-07-09T06:02:12;4.10;;;3.80;;
545;SDS011;259;53.304;9.816;2023-07-09T06:04:40;3.60;;;3.40;;
545;SDS011;259;53.304;9.816;2023-07-09T06:07:07;3.30;;;3.10;;
545;SDS011;259;53.304;9.816;2023-07-09T06:09:34;3.43;;;3.23;;
545;SDS011;259;53.304;9.816;2023-07-09T06:12:00;3.53;;;3.33;;
545;SDS011;259;53.304;9.816;2023-07-09T06:14:28;3.40;;;3.20;;
545;SDS011;259;53.304;9.816;2023-07-09T06:16:55;5.10;;;3.30;;
545;SDS011;259;53.304;9.816;2023-07-09T06:19:21;3.90;;;3.70;;
545;SDS011;259;53.304;9.816;2023-07-09T06:21:46;3.47;;;3.27;;
545;SDS011;259;53.304;9.816;2023-07-09T06:24:12;3.63;;;3.33;;
545;SDS011;259;53.304;9.816;2023-07-09T06:26:38;3.67;;;3.43;;
545;SDS011;259;53.304;9.816;2023-07-09T06:29:04;3.70;;;3.50;;
545;SDS011;259;53.304;9.816;2023-07-09T06:31:31;3.50;;;3.30;;
545;SDS011;259;53.304;9.816;2023-07-09T06:33:56;3.80;;;3.60;;
545;SDS011;259;53.304;9.816;2023-07-09T06:36:22;4.07;;;3.87;;
545;SDS011;259;53.304;9.816;2023-07-09T06:38:48;3.67;;;3.47;;
545;SDS011;259;53.304;9.816;2023-07-09T06:41:14;3.70;;;3.50;;
545;SDS011;259;53.304;9.816;2023-07-09T06:43:40;4.63;;;4.33;;
545;SDS011;259;53.304;9.816;2023-07-09T06:46:07;5.50;;;4.93;;
545;SDS011;259;53.304;9.816;2023-07-09T06:48:36;5.67;;;5.20;;
545;SDS011;259;53.304;9.816;2023-07-09T06:51:02;5.77;;;5.37;;
545;SDS011;259;53.304;9.816;2023-07-09T06:53:28;5.83;;;5.33;;
545;SDS011;259;53.304;9.816;2023-07-09T06:55:54;6.03;;;5.50;;
545;SDS011;259;53.304;9.816;2023-07-09T06:58:23;5.90;;;5.40;;
545;SDS011;259;53.304;9.816;2023-07-09T07:00:52;5.93;;;5.17;;
545;SDS011;259;53.304;9.816;2023-07-09T07:03:20;6.30;;;5.80;;
545;SDS011;259;53.304;9.816;2023-07-09T07:05:48;5.50;;;5.20;;
545;SDS011;259;53.304;9.816;2023-07-09T07:08:19;5.17;;;4.87;;
545;SDS011;259;53.304;9.816;2023-07-09T07:10:48;5.40;;;5.00;;
545;SDS011;259;53.304;9.816;2023-07-09T07:13:14;6.07;;;5.50;;
545;SDS011;259;53.304;9.816;2023-07-09T07:15:40;6.40;;;5.80;;
545;SDS011;259;53.304;9.816;2023-07-09T07:18:07;6.23;;;5.80;;
545;SDS011;259;53.304;9.816;2023-07-09T07:20:34;6.90;;;5.70;;
545;SDS011;259;53.304;9.816;2023-07-09T07:23:00;5.90;;;5.50;;
545;SDS011;259;53.304;9.816;2023-07-09T07:25:26;5.93;;;5.53;;
545;SDS011;259;53.304;9.816;2023-07-09T07:27:51;8.50;;;6.70;;
545;SDS011;259;53.304;9.816;2023-07-09T07:30:18;7.20;;;6.13;;
545;SDS011;259;53.304;9.816;2023-07-09T07:32:45;7.43;;;6.07;;
545;SDS011;259;53.304;9.816;2023-07-09T07:35:12;14.70;;;6.50;;
545;SDS011;259;53.304;9.816;2023-07-09T07:37:39;7.70;;;6.40;;
545;SDS011;259;53.304;9.816;2023-07-09T07:40:08;11.43;;;5.97;;
545;SDS011;259;53.304;9.816;2023-07-09T07:42:34;10.20;;;6.37;;
545;SDS011;259;53.304;9.816;2023-07-09T07:45:00;6.53;;;5.93;;
545;SDS011;259;53.304;9.816;2023-07-09T07:47:26;6.93;;;6.10;;
545;SDS011;259;53.304;9.816;2023-07-09T07:49:53;5.73;;;5.23;;
545;SDS011;259;53.304;9.816;2023-07-09T07:52:19;9.00;;;5.57;;
545;SDS011;259;53.304;9.816;2023-07-09T07:54:45;6.73;;;6.13;;
545;SDS011;259;53.304;9.816;2023-07-09T07:57:11;6.00;;;5.60;;
545;SDS011;259;53.304;9.816;2023-07-09T07:59:37;6.30;;;5.53;;
545;SDS011;259;53.304;9.816;2023-07-09T08:02:06;5.67;;;5.17;;
545;SDS011;259;53.304;9.816;2023-07-09T08:04:36;6.77;;;6.17;;
545;SDS011;259;53.304;9.816;2023-07-09T08:07:02;8.80;;;5.80;;
545;SDS011;259;53.304;9.816;2023-07-09T08:09:27;5.20;;;4.70;;
545;SDS011;259;53.304;9.816;2023-07-09T08:11:54;6.07;;;5.57;;
545;SDS011;259;53.304;9.816;2023-07-09T08:14:19;5.50;;;5.00;;
545;SDS011;259;53.304;9.816;2023-07-09T08:16:45;5.73;;;5.23;;
545;SDS011;259;53.304;9.816;2023-07-09T08:19:12;5.40;;;5.00;;
545;SDS011;259;53.304;9.816;2023-07-09T08:21:38;6.73;;;6.13;;
545;SDS011;259;53.304;9.816;2023-07-09T08:24:04;7.77;;;6.70;;
545;SDS011;259;53.304;9.816;2023-07-09T08:26:30;5.93;;;5.43;;
545;SDS011;259;53.304;9.816;2023-07-09T08:28:57;6.63;;;6.13;;
545;SDS011;259;53.304;9.816;2023-07-09T08:31:23;7.20;;;6.70;;
545;SDS011;259;53.304;9.816;2023-07-09T08:33:49;7.10;;;6.50;;
545;SDS011;259;53.304;9.816;2023-07-09T08:36:15;6.93;;;6.53;;
545;SDS011;259;53.304;9.816;2023-07-09T08:38:41;8.00;;;7.40;;
545;SDS011;259;53.304;9.816;2023-07-09T08:41:08;6.70;;;6.20;;
545;SDS011;259;53.304;9.816;2023-07-09T08:47:04;6.53;;;6.13;;
545;SDS011;259;53.304;9.816;2023-07-09T08:49:43;7.37;;;6.87;;
545;SDS011;259;53.304;9.816;2023-07-09T08:52:26;6.93;;;6.53;;
545;SDS011;259;53.304;9.816;2023-07-09T08:55:00;6.47;;;6.07;;
545;SDS011;259;53.304;9.816;2023-07-09T08:57:43;6.50;;;6.00;;
545;SDS011;259;53.304;9.816;2023-07-09T09:03:14;7.10;;;6.70;;
545;SDS011;259;53.304;9.816;2023-07-09T09:05:54;7.60;;;7.00;;
545;SDS011;259;53.304;9.816;2023-07-09T09:08:30;7.57;;;7.07;;
545;SDS011;259;53.304;9.816;2023-07-09T09:17:18;6.90;;;6.50;;
545;SDS011;259;53.304;9.816;2023-07-09T09:20:02;7.20;;;6.70;;
545;SDS011;259;53.304;9.816;2023-07-09T09:22:33;7.07;;;6.67;;
545;SDS011;259;53.304;9.816;2023-07-09T09:25:24;6.83;;;6.43;;
545;SDS011;259;53.304;9.816;2023-07-09T09:27:57;7.47;;;6.97;;
545;SDS011;259;53.304;9.816;2023-07-09T09:30:27;7.63;;;7.00;;
545;SDS011;259;53.304;9.816;2023-07-09T09:32:59;7.20;;;6.60;;
545;SDS011;259;53.304;9.816;2023-07-09T09:35:31;7.40;;;6.90;;
545;SDS011;259;53.304;9.816;2023-07-09T09:38:00;7.03;;;6.63;;
545;SDS011;259;53.304;9.816;2023-07-09T09:40:28;7.20;;;6.70;;
545;SDS011;259;53.304;9.816;2023-07-09T09:42:59;7.10;;;6.70;;
545;SDS011;259;53.304;9.816;2023-07-09T09:45:27;7.13;;;6.73;;
545;SDS011;259;53.304;9.816;2023-07-09T09:48:00;7.30;;;6.70;;
545;SDS011;259;53.304;9.816;2023-07-09T09:50:45;6.90;;;6.50;;
545;SDS011;259;53.304;9.816;2023-07-09T09:53:17;6.83;;;6.30;;
545;SDS011;259;53.304;9.816;2023-07-09T09:55:46;6.90;;;6.40;;
545;SDS011;259;53.304;9.816;2023-07-09T09:58:14;7.43;;;6.70;;
545;SDS011;259;53.304;9.816;2023-07-09T10:00:46;7.83;;;7.13;;
545;SDS011;259;53.304;9.816;2023-07-09T10:03:17;6.73;;;5.90;;
545;SDS011;259;53.304;9.816;2023-07-09T10:05:46;7.30;;;6.73;;
545;SDS011;259;53.304;9.816;2023-07-09T10:11:16;6.30;;;5.90;;
545;SDS011;259;53.304;9.816;2023-07-09T10:13:46;7.00;;;6.50;;
545;SDS011;259;53.304;9.816;2023-07-09T10:16:19;7.03;;;6.53;;
545;SDS011;259;53.304;9.816;2023-07-09T10:18:59;6.97;;;6.50;;
545;SDS011;259;53.304;9.816;2023-07-09T10:21:41;7.17;;;6.47;;
545;SDS011;259;53.304;9.816;2023-07-09T10:27:29;6.90;;;6.50;;
545;SDS011;259;53.304;9.816;2023-07-09T10:33:12;6.77;;;6.27;;
545;SDS011;259;53.304;9.816;2023-07-09T10:36:03;6.50;;;6.00;;
545;SDS011;259;53.304;9.816;2023-07-09T10:38:56;6.30;;;5.80;;
545;SDS011;259;53.304;9.816;2023-07-09T10:41:30;6.30;;;5.90;;
545;SDS011;259;53.304;9.816;2023-07-09T10:44:06;6.83;;;6.33;;
545;SDS011;259;53.304;9.816;2023-07-09T10:46:46;6.23;;;5.83;;
545;SDS011;259;53.304;9.816;2023-07-09T10:49:18;6.03;;;5.60;;
545;SDS011;259;53.304;9.816;2023-07-09T10:51:50;6.70;;;5.60;;
545;SDS011;259;53.304;9.816;2023-07-09T10:57:37;6.33;;;5.93;;
545;SDS011;259;53.304;9.816;2023-07-09T11:00:21;6.60;;;6.20;;
545;SDS011;259;53.304;9.816;2023-07-09T11:02:58;6.40;;;5.90;;
545;SDS011;259;53.304;9.816;2023-07-09T11:05:28;5.37;;;5.07;;
545;SDS011;259;53.304;9.816;2023-07-09T11:10:32;6.27;;;5.87;;
545;SDS011;259;53.304;9.816;2023-07-09T11:13:11;6.00;;;5.60;;
545;SDS011;259;53.304;9.816;2023-07-09T11:15:43;5.33;;;4.93;;
545;SDS011;259;53.304;9.816;2023-07-09T11:18:16;6.27;;;5.77;;
545;SDS011;259;53.304;9.816;2023-07-09T11:21:03;5.60;;;5.10;;
545;SDS011;259;53.304;9.816;2023-07-09T11:23:42;5.90;;;5.60;;
545;SDS011;259;53.304;9.816;2023-07-09T11:26:25;6.50;;;6.10;;
545;SDS011;259;53.304;9.816;2023-07-09T11:36:32;6.73;;;6.30;;
545;SDS011;259;53.304;9.816;2023-07-09T11:38:59;5.83;;;5.43;;
545;SDS011;259;53.304;9.816;2023-07-09T11:41:42;6.40;;;6.00;;
545;SDS011;259;53.304;9.816;2023-07-09T11:44:16;6.13;;;5.80;;
545;SDS011;259;53.304;9.816;2023-07-09T11:52:33;5.77;;;5.47;;
545;SDS011;259;53.304;9.816;2023-07-09T11:58:00;6.37;;;5.97;;
545;SDS011;259;53.304;9.816;2023-07-09T12:00:29;6.60;;;6.20;;
545;SDS011;259;53.304;9.816;2023-07-09T12:03:04;6.67;;;6.07;;
545;SDS011;259;53.304;9.816;2023-07-09T12:05:32;5.87;;;5.43;;
545;SDS011;259;53.304;9.816;2023-07-09T12:07:58;5.90;;;5.60;;
545;SDS011;259;53.304;9.816;2023-07-09T12:10:27;5.27;;;4.97;;
545;SDS011;259;53.304;9.816;2023-07-09T12:12:58;5.50;;;5.20;;
545;SDS011;259;53.304;9.816;2023-07-09T12:15:26;5.60;;;5.30;;
545;SDS011;259;53.304;9.816;2023-07-09T12:20:21;6.00;;;5.70;;
545;SDS011;259;53.304;9.816;2023-07-09T12:22:46;6.93;;;6.00;;
545;SDS011;259;53.304;9.816;2023-07-09T12:25:25;5.97;;;5.57;;
545;SDS011;259;53.304;9.816;2023-07-09T12:27:58;6.87;;;6.40;;
545;SDS011;259;53.304;9.816;2023-07-09T12:30:24;5.53;;;5.13;;
545;SDS011;259;53.304;9.816;2023-07-09T12:32:50;5.87;;;5.57;;
545;SDS011;259;53.304;9.816;2023-07-09T12:35:19;6.00;;;5.60;;
545;SDS011;259;53.304;9.816;2023-07-09T12:37:46;6.33;;;5.83;;
545;SDS011;259;53.304;9.816;2023-07-09T12:40:17;6.60;;;6.20;;
545;SDS011;259;53.304;9.816;2023-07-09T12:42:47;5.37;;;4.87;;
545;SDS011;259;53.304;9.816;2023-07-09T12:45:17;5.77;;;5.37;;
545;SDS011;259;53.304;9.816;2023-07-09T12:47:45;5.37;;;5.07;;
545;SDS011;259;53.304;9.816;2023-07-09T12:50:31;6.30;;;5.90;;
545;SDS011;259;53.304;9.816;2023-07-09T12:53:02;6.03;;;5.63;;
545;SDS011;259;53.304;9.816;2023-07-09T12:55:39;5.70;;;5.30;;
545;SDS011;259;53.304;9.816;2023-07-09T12:58:17;6.33;;;5.93;;
545;SDS011;259;53.304;9.816;2023-07-09T13:00:59;6.00;;;5.60;;
545;SDS011;259;53.304;9.816;2023-07-09T13:03:31;5.83;;;5.53;;
545;SDS011;259;53.304;9.816;2023-07-09T13:06:05;5.80;;;5.40;;
545;SDS011;259;53.304;9.816;2023-07-09T13:08:48;5.33;;;5.03;;
545;SDS011;259;53.304;9.816;2023-07-09T13:11:24;5.50;;;5.17;;
545;SDS011;259;53.304;9.816;2023-07-09T13:13:58;6.47;;;6.07;;
545;SDS011;259;53.304;9.816;2023-07-09T13:16:28;6.10;;;5.60;;
545;SDS011;259;53.304;9.816;2023-07-09T13:18:54;5.30;;;5.00;;
545;SDS011;259;53.304;9.816;2023-07-09T13:21:20;5.60;;;5.30;;
545;SDS011;259;53.304;9.816;2023-07-09T13:23:47;5.93;;;5.50;;
545;SDS011;259;53.304;9.816;2023-07-09T13:26:14;5.80;;;5.30;;
545;SDS011;259;53.304;9.816;2023-07-09T13:28:41;5.80;;;5.40;;
545;SDS011;259;53.304;9.816;2023-07-09T13:33:43;5.83;;;5.43;;
545;SDS011;259;53.304;9.816;2023-07-09T13:36:15;5.50;;;5.20;;
545;SDS011;259;53.304;9.816;2023-07-09T13:38:41;5.53;;;5.13;;
545;SDS011;259;53.304;9.816;2023-07-09T13:41:11;5.80;;;5.30;;
545;SDS011;259;53.304;9.816;2023-07-09T13:43:45;6.47;;;6.07;;
545;SDS011;259;53.304;9.816;2023-07-09T13:46:12;5.50;;;5.20;;
545;SDS011;259;53.304;9.816;2023-07-09T13:48:39;5.60;;;5.20;;
545;SDS011;259;53.304;9.816;2023-07-09T13:51:20;6.07;;;5.67;;
545;SDS011;259;53.304;9.816;2023-07-09T13:53:48;5.67;;;5.23;;
545;SDS011;259;53.304;9.816;2023-07-09T13:56:18;5.60;;;5.20;;
545;SDS011;259;53.304;9.816;2023-07-09T13:58:45;5.63;;;5.33;;
545;SDS011;259;53.304;9.816;2023-07-09T14:01:13;5.10;;;4.80;;
545;SDS011;259;53.304;9.816;2023-07-09T14:03:49;5.30;;;4.93;;
545;SDS011;259;53.304;9.816;2023-07-09T14:06:15;5.93;;;5.53;;
545;SDS011;259;53.304;9.816;2023-07-09T14:08:42;5.50;;;5.03;;
545;SDS011;259;53.304;9.816;2023-07-09T14:11:11;5.37;;;5.07;;
545;SDS011;259;53.304;9.816;2023-07-09T14:13:39;5.17;;;4.87;;
545;SDS011;259;53.304;9.816;2023-07-09T14:16:06;5.40;;;5.00;;
545;SDS011;259;53.304;9.816;2023-07-09T14:18:35;5.40;;;5.10;;
545;SDS011;259;53.304;9.816;2023-07-09T14:21:02;5.40;;;5.10;;
545;SDS011;259;53.304;9.816;2023-07-09T14:23:40;5.57;;;5.20;;
545;SDS011;259;53.304;9.816;2023-07-09T14:26:07;5.20;;;4.90;;
545;SDS011;259;53.304;9.816;2023-07-09T14:28:35;4.97;;;4.67;;
545;SDS011;259;53.304;9.816;2023-07-09T14:31:03;5.30;;;4.80;;
545;SDS011;259;53.304;9.816;2023-07-09T14:33:33;5.27;;;4.97;;
545;SDS011;259;53.304;9.816;2023-07-09T14:36:00;5.47;;;5.17;;
545;SDS011;259;53.304;9.816;2023-07-09T14:38:25;5.07;;;4.77;;
545;SDS011;259;53.304;9.816;2023-07-09T14:40:52;4.80;;;4.50;;
545;SDS011;259;53.304;9.816;2023-07-09T14:43:21;5.30;;;4.90;;
545;SDS011;259;53.304;9.816;2023-07-09T14:45:47;5.20;;;4.90;;
545;SDS011;259;53.304;9.816;2023-07-09T14:48:18;4.93;;;4.63;;
545;SDS011;259;53.304;9.816;2023-07-09T14:50:45;4.77;;;4.47;;
545;SDS011;259;53.304;9.816;2023-07-09T14:53:17;5.63;;;5.23;;
545;SDS011;259;53.304;9.816;2023-07-09T14:55:46;5.20;;;4.90;;
545;SDS011;259;53.304;9.816;2023-07-09T14:58:15;4.80;;;4.50;;
545;SDS011;259;53.304;9.816;2023-07-09T15:00:45;5.53;;;5.03;;
545;SDS011;259;53.304;9.816;2023-07-09T15:03:18;5.23;;;4.93;;
545;SDS011;259;53.304;9.816;2023-07-09T15:05:50;4.97;;;4.67;;
545;SDS011;259;53.304;9.816;2023-07-09T15:08:20;5.80;;;5.43;;
545;SDS011;259;53.304;9.816;2023-07-09T15:10:48;5.20;;;4.90;;
545;SDS011;259;53.304;9.816;2023-07-09T15:13:18;5.43;;;5.13;;
545;SDS011;259;53.304;9.816;2023-07-09T15:15:50;5.27;;;4.97;;
545;SDS011;259;53.304;9.816;2023-07-09T15:18:16;4.90;;;4.50;;
545;SDS011;259;53.304;9.816;2023-07-09T15:20:44;5.00;;;4.70;;
545;SDS011;259;53.304;9.816;2023-07-09T15:23:18;4.77;;;4.37;;
545;SDS011;259;53.304;9.816;2023-07-09T15:25:46;4.73;;;4.43;;
545;SDS011;259;53.304;9.816;2023-07-09T15:28:13;4.70;;;4.40;;
545;SDS011;259;53.304;9.816;2023-07-09T15:30:39;4.97;;;4.67;;
545;SDS011;259;53.304;9.816;2023-07-09T15:33:05;5.10;;;4.80;;
545;SDS011;259;53.304;9.816;2023-07-09T15:35:40;5.23;;;4.83;;
545;SDS011;259;53.304;9.816;2023-07-09T15:40:43;4.87;;;4.53;;
545;SDS011;259;53.304;9.816;2023-07-09T15:43:08;5.30;;;5.00;;
545;SDS011;259;53.304;9.816;2023-07-09T15:45:37;5.47;;;5.07;;
545;SDS011;259;53.304;9.816;2023-07-09T15:48:09;4.90;;;4.57;;
545;SDS011;259;53.304;9.816;2023-07-09T15:50:50;4.30;;;4.10;;
545;SDS011;259;53.304;9.816;2023-07-09T15:53:16;4.67;;;4.37;;
545;SDS011;259;53.304;9.816;2023-07-09T15:55:42;5.53;;;5.07;;
545;SDS011;259;53.304;9.816;2023-07-09T15:58:08;4.93;;;4.63;;
545;SDS011;259;53.304;9.816;2023-07-09T16:00:52;5.07;;;4.77;;
545;SDS011;259;53.304;9.816;2023-07-09T16:03:17;5.40;;;5.00;;
545;SDS011;259;53.304;9.816;2023-07-09T16:05:43;5.53;;;5.07;;
545;SDS011;259;53.304;9.816;2023-07-09T16:08:10;5.40;;;5.10;;
545;SDS011;259;53.304;9.816;2023-07-09T16:10:36;5.23;;;4.83;;
545;SDS011;259;53.304;9.816;2023-07-09T16:13:02;3.97;;;3.77;;
545;SDS011;259;53.304;9.816;2023-07-09T16:15:28;4.70;;;4.40;;
545;SDS011;259;53.304;9.816;2023-07-09T16:17:54;4.80;;;4.50;;
545;SDS011;259;53.304;9.816;2023-07-09T16:20:24;4.37;;;4.10;;
545;SDS011;259;53.304;9.816;2023-07-09T16:22:54;5.13;;;4.83;;
545;SDS011;259;53.304;9.816;2023-07-09T16:25:55;4.77;;;4.47;;
545;SDS011;259;53.304;9.816;2023-07-09T16:28:14;4.87;;;4.47;;
545;SDS011;259;53.304;9.816;2023-07-09T16:30:44;4.57;;;4.27;;
545;SDS011;259;53.304;9.816;2023-07-09T16:33:11;4.40;;;4.20;;
545;SDS011;259;53.304;9.816;2023-07-09T16:35:38;4.77;;;4.47;;
545;SDS011;259;53.304;9.816;2023-07-09T16:38:04;4.40;;;4.20;;
545;SDS011;259;53.304;9.816;2023-07-09T16:40:31;5.03;;;4.73;;
545;SDS011;259;53.304;9.816;2023-07-09T16:42:58;4.20;;;4.00;;
545;SDS011;259;53.304;9.816;2023-07-09T16:45:27;5.50;;;5.20;;
545;SDS011;259;53.304;9.816;2023-07-09T16:47:53;4.80;;;4.50;;
545;SDS011;259;53.304;9.816;2023-07-09T16:50:23;5.03;;;4.70;;